Time;durP1;ratioP1;P1;durP2;ratioP2;P2;SDS_P1;SDS_P2;PMS_P1;PMS_P2;Temp;Humidity;BMP_temperature;BMP_pressure;BME280_temperature;BME280_humidity;BME280_pressure;Samples;Min_cycle;Max_cycle;Signal;HPM_P1;HPM_P2
2022/07/31 00:00:10;;;;;;;13.80;8.20;;;;;;;20.22;93.28;100714.55;111059;1231;60336;-83
2022/07/31 00:03:00;;;;;;;10.80;7.50;;;;;;;20.25;92.90;100708.54;110663;1232;64991;-80
2022/07/31 00:05:28;;;;;;;13.60;8.20;;;;;;;20.35;93.66;100707.23;110656;1231;71265;-82
2022/07/31 00:07:55;;;;;;;10.70;8.20;;;;;;;20.34;94.35;100706.04;110544;1231;69764;-82
2022/07/31 00:10:23;;;;;;;8.90;8.00;;;;;;;20.41;94.90;100706.04;110867;1231;72597;-81
2022/07/31 00:12:52;;;;;;;11.00;8.30;;;;;;;20.38;94.86;100692.20;110743;1232;62534;-82
2022/07/31 00:15:21;;;;;;;10.00;7.80;;;;;;;20.38;94.10;100687.92;111027;1231;57468;-84
2022/07/31 00:17:49;;;;;;;14.50;8.20;;;;;;;20.37;95.25;100681.46;110726;1232;72727;-83
2022/07/31 00:20:17;;;;;;;10.30;7.70;;;;;;;20.38;95.75;100677.47;110955;1231;61141;-83
2022/07/31 00:22:47;;;;;;;10.90;7.90;;;;;;;20.43;94.65;100674.26;110876;1231;69638;-83
2022/07/31 00:25:16;;;;;;;11.70;8.00;;;;;;;20.44;92.11;100670.31;110763;1231;73462;-81
2022/07/31 00:27:44;;;;;;;10.60;7.90;;;;;;;20.42;92.53;100669.48;110847;1233;58217;-82
2022/07/31 00:30:12;;;;;;;10.90;8.10;;;;;;;20.36;92.03;100663.92;111071;1231;58957;-83
2022/07/31 00:32:40;;;;;;;9.30;7.50;;;;;;;20.34;94.30;100664.28;111140;1231;72827;-83
2022/07/31 00:35:12;;;;;;;9.50;7.60;;;;;;;20.39;95.22;100658.43;111049;1233;72012;-83
2022/07/31 00:37:43;;;;;;;12.20;8.30;;;;;;;20.38;96.36;100661.92;111081;1231;59773;-82
2022/07/31 00:40:17;;;;;;;9.30;7.60;;;;;;;20.33;97.28;100662.31;111442;1231;62372;-82
2022/07/31 00:42:44;;;;;;;11.40;7.70;;;;;;;20.28;97.31;100665.75;111388;1233;58785;-82
2022/07/31 00:45:12;;;;;;;10.60;7.90;;;;;;;20.26;97.29;100670.45;111500;1229;57539;-79
2022/07/31 00:47:41;;;;;;;10.90;8.00;;;;;;;20.22;97.14;100675.77;111416;1231;62062;-83
2022/07/31 00:50:10;;;;;;;12.10;8.30;;;;;;;20.28;98.07;100676.60;111333;1230;71309;-82
2022/07/31 00:52:37;;;;;;;11.50;8.50;;;;;;;20.28;97.11;100677.99;111007;1231;70298;-82
2022/07/31 00:55:06;;;;;;;13.80;8.20;;;;;;;20.29;97.27;100679.92;111333;1230;73967;-82
2022/07/31 00:57:33;;;;;;;10.10;7.70;;;;;;;20.37;96.76;100680.95;111304;1231;62503;-83
2022/07/31 01:00:01;;;;;;;13.10;8.20;;;;;;;20.35;97.18;100680.27;111245;1234;60708;-80
2022/07/31 01:02:29;;;;;;;10.30;8.20;;;;;;;20.40;96.96;100676.10;111343;1231;62635;-83
2022/07/31 01:04:56;;;;;;;10.50;8.20;;;;;;;20.43;96.33;100675.85;111309;1231;72314;-81
2022/07/31 01:07:24;;;;;;;11.00;8.00;;;;;;;20.49;96.70;100674.91;111284;1233;59641;-82
2022/07/31 01:09:52;;;;;;;14.00;7.60;;;;;;;20.47;95.62;100676.00;111286;1233;73154;-84
2022/07/31 01:12:42;;;;;;;12.50;8.40;;;;;;;20.47;95.74;100674.41;111486;1230;62393;-83
2022/07/31 01:15:16;;;;;;;10.10;7.60;;;;;;;20.49;95.83;100669.23;111290;1231;60771;-82
2022/07/31 01:17:46;;;;;;;11.60;8.00;;;;;;;20.57;94.91;100665.63;110925;1231;75424;-83
2022/07/31 01:20:14;;;;;;;12.80;8.10;;;;;;;20.65;94.68;100657.11;111107;1231;72366;-83
2022/07/31 01:23:17;;;;;;;11.90;8.30;;;;;;;20.68;95.41;100656.19;111319;1230;59631;-83
2022/07/31 01:26:13;;;;;;;13.40;9.00;;;;;;;20.70;96.57;100653.19;111396;1231;74765;-81
2022/07/31 01:29:45;;;;;;;12.40;8.50;;;;;;;20.71;96.66;100653.17;111347;1231;57895;-84
2022/07/31 01:35:40;;;;;;;12.20;9.30;;;;;;;20.81;95.61;100656.00;111276;1231;64161;-83
2022/07/31 01:38:18;;;;;;;10.70;9.00;;;;;;;20.88;95.57;100651.95;111436;1231;60861;-82
2022/07/31 01:40:56;;;;;;;9.60;8.60;;;;;;;20.95;95.82;100650.05;111221;1230;59283;-81
2022/07/31 01:44:40;;;;;;;10.10;8.40;;;;;;;21.00;95.03;100644.91;111162;1229;72274;31
2022/07/31 01:47:16;;;;;;;10.80;8.80;;;;;;;21.01;95.52;100635.97;111132;1232;62493;-83
2022/07/31 01:49:45;;;;;;;14.30;8.30;;;;;;;21.06;95.71;100637.94;110904;1235;57704;-85
2022/07/31 01:52:14;;;;;;;11.10;8.70;;;;;;;21.10;95.73;100634.52;110707;1233;62365;-82
2022/07/31 01:54:43;;;;;;;10.10;8.80;;;;;;;21.09;95.21;100628.45;110994;1235;71429;-83
2022/07/31 01:57:59;;;;;;;11.00;8.50;;;;;;;21.11;94.88;100626.79;110905;1232;70417;31
2022/07/31 02:00:27;;;;;;;12.00;9.20;;;;;;;21.10;95.09;100633.58;111123;1235;62978;-84
2022/07/31 02:03:13;;;;;;;10.20;8.20;;;;;;;21.13;95.14;100630.52;111293;1233;58172;-84
2022/07/31 02:05:46;;;;;;;11.70;8.90;;;;;;;21.15;95.17;100629.42;111464;1230;60885;-84
2022/07/31 02:08:59;;;;;;;11.80;9.20;;;;;;;21.12;94.82;100628.71;110863;1231;73604;31
2022/07/31 02:11:28;;;;;;;11.10;9.80;;;;;;;21.17;94.88;100625.46;111102;1230;71174;-83
2022/07/31 02:14:15;;;;;;;11.00;8.80;;;;;;;21.21;95.10;100623.08;111083;1231;59121;31
2022/07/31 02:16:48;;;;;;;10.50;9.40;;;;;;;21.24;94.16;100626.27;111213;1233;62491;-84
2022/07/31 02:19:28;;;;;;;9.70;8.30;;;;;;;21.23;94.04;100623.53;111008;1231;62655;31
2022/07/31 02:22:38;;;;;;;12.60;8.60;;;;;;;21.25;93.02;100621.75;110739;1231;61384;31
2022/07/31 02:25:13;;;;;;;13.20;9.10;;;;;;;21.27;93.21;100622.75;111003;1230;63198;31
2022/07/31 02:28:25;;;;;;;12.30;9.00;;;;;;;21.26;93.36;100621.15;110875;1230;60964;31
2022/07/31 02:30:54;;;;;;;10.10;8.90;;;;;;;21.25;93.31;100625.51;111076;1230;68639;-85
2022/07/31 02:33:54;;;;;;;10.60;8.30;;;;;;;21.25;93.34;100622.23;111062;1230;73553;31
2022/07/31 03:42:27;;;;;;;7.90;5.70;;;;;;;20.73;77.98;100594.45;111013;1231;70071;31
2022/07/31 03:45:38;;;;;;;7.20;5.80;;;;;;;20.73;78.01;100595.07;110651;1230;73780;31
2022/07/31 03:56:18;;;;;;;9.40;5.30;;;;;;;20.78;74.79;100592.00;111158;1231;62544;-85
2022/07/31 03:58:47;;;;;;;11.20;5.50;;;;;;;20.71;73.68;100575.74;110969;1235;71512;-86
2022/07/31 04:09:44;;;;;;;7.80;5.30;;;;;;;20.95;73.04;100589.89;111123;1230;62973;31
2022/07/31 04:12:13;;;;;;;6.90;4.90;;;;;;;20.99;72.37;100585.17;110871;1232;57212;-82
2022/07/31 04:14:41;;;;;;;10.50;5.10;;;;;;;21.05;71.21;100585.64;111013;1235;71797;-85
2022/07/31 04:18:05;;;;;;;8.70;5.20;;;;;;;21.19;71.05;100586.52;111442;1232;63138;31
2022/07/31 04:20:38;;;;;;;8.10;4.70;;;;;;;21.28;68.90;100585.73;111050;1233;60291;-84
2022/07/31 04:23:14;;;;;;;7.40;4.60;;;;;;;21.31;69.29;100583.36;110953;1231;71191;31
2022/07/31 04:26:00;;;;;;;8.60;5.20;;;;;;;21.21;69.73;100570.09;111221;1232;62358;-83
2022/07/31 04:32:49;;;;;;;6.90;5.00;;;;;;;21.39;68.94;100579.14;111432;1230;74119;-85
2022/07/31 04:35:22;;;;;;;6.80;5.00;;;;;;;21.28;68.16;100555.83;110745;1239;72401;-82
2022/07/31 04:37:50;;;;;;;10.10;5.40;;;;;;;21.46;68.04;100581.02;111324;1232;59993;-85
2022/07/31 04:40:20;;;;;;;7.10;4.90;;;;;;;21.54;67.42;100581.45;111410;1230;71574;-83
2022/07/31 04:42:48;;;;;;;5.20;4.30;;;;;;;21.58;67.52;100576.69;111469;1230;59458;-85
2022/07/31 04:45:50;;;;;;;9.10;4.90;;;;;;;21.63;67.50;100579.82;111470;1231;57415;31
2022/07/31 04:48:50;;;;;;;8.00;5.30;;;;;;;21.65;67.50;100577.95;111013;1230;62259;31
2022/07/31 04:51:26;;;;;;;10.10;4.80;;;;;;;21.63;68.21;100577.98;110987;1232;62573;31
2022/07/31 05:01:39;;;;;;;10.10;5.00;;;;;;;21.77;67.59;100573.31;111154;1231;57403;-83
2022/07/31 05:04:08;;;;;;;7.50;4.80;;;;;;;21.79;69.06;100573.55;111338;1234;57522;-87
2022/07/31 05:06:51;;;;;;;8.20;5.30;;;;;;;21.86;69.97;100575.58;111304;1230;72897;-81
2022/07/31 05:09:23;;;;;;;8.20;4.80;;;;;;;21.84;69.42;100567.86;110508;1229;72621;-83
2022/07/31 05:11:56;;;;;;;8.20;4.90;;;;;;;21.87;69.94;100577.72;111090;1235;59267;-84
2022/07/31 05:14:24;;;;;;;7.70;4.90;;;;;;;21.90;70.48;100584.14;111482;1233;63238;-82
2022/07/31 05:16:54;;;;;;;9.90;5.00;;;;;;;21.72;70.79;100564.02;111359;1230;60417;-82
2022/07/31 05:19:41;;;;;;;8.80;4.70;;;;;;;21.92;71.17;100588.95;111116;1230;58089;31
2022/07/31 05:22:34;;;;;;;9.30;5.10;;;;;;;21.98;71.32;100590.64;111382;1230;63750;-83
2022/07/31 05:26:21;;;;;;;7.90;4.90;;;;;;;21.89;71.44;100575.58;111149;1229;73071;31
2022/07/31 05:32:45;;;;;;;7.20;5.30;;;;;;;22.00;72.56;100596.80;111472;1228;63851;-84
2022/07/31 05:35:18;;;;;;;8.70;5.40;;;;;;;21.99;72.99;100597.16;111212;1233;57770;-82
2022/07/31 05:37:47;;;;;;;;;;;;;;;21.89;73.16;100578.89;111357;1233;60774;-86
2022/07/31 05:40:16;;;;;;;9.90;5.20;;;;;;;22.09;73.77;100600.96;111297;1231;73213;-82
2022/07/31 05:43:19;;;;;;;11.50;5.70;;;;;;;22.06;73.39;100599.57;111223;1228;60617;-84
2022/07/31 05:46:33;;;;;;;10.00;5.70;;;;;;;22.05;73.50;100607.66;111404;1228;70647;31
2022/07/31 05:49:08;;;;;;;9.90;5.40;;;;;;;22.04;73.91;100609.74;111364;1233;63179;-82
2022/07/31 05:51:53;;;;;;;;;;;;;;;;;;;;;
2022/07/31 05:59:06;;;;;;;8.30;5.40;;;;;;;21.76;75.14;100618.05;111515;1228;73192;31
2022/07/31 06:05:50;;;;;;;9.90;6.60;;;;;;;21.65;78.61;100613.50;111438;1230;59453;31
2022/07/31 06:12:22;;;;;;;10.80;7.10;;;;;;;21.67;81.53;100605.64;108963;1235;62900;-76
2022/07/31 06:14:49;;;;;;;9.90;6.60;;;;;;;21.68;82.25;100606.79;108796;1238;59407;-73
2022/07/31 06:17:21;;;;;;;8.60;6.60;;;;;;;21.66;82.33;100601.23;109128;1234;62061;-74
2022/07/31 06:19:49;;;;;;;8.70;6.40;;;;;;;21.65;81.99;100595.66;108952;1234;60932;-75
2022/07/31 06:22:16;;;;;;;11.70;6.60;;;;;;;21.66;81.90;100591.63;108758;1235;71134;-75
2022/07/31 06:24:44;;;;;;;9.90;6.60;;;;;;;21.70;81.63;100588.70;108939;1235;63040;-76
2022/07/31 06:27:12;;;;;;;11.60;8.50;;;;;;;21.73;81.60;100585.10;108817;1234;57377;-76
2022/07/31 06:30:00;;;;;;;11.30;7.70;;;;;;;21.78;80.48;100585.06;108921;1235;60340;-76
2022/07/31 06:32:29;;;;;;;8.30;6.40;;;;;;;21.83;78.71;100581.45;109054;1235;72254;-78
2022/07/31 06:34:56;;;;;;;8.00;5.70;;;;;;;21.86;77.90;100576.32;109305;1235;62045;-79
2022/07/31 06:37:25;;;;;;;7.60;6.00;;;;;;;21.93;76.88;100571.89;109337;1234;62223;-78
2022/07/31 06:39:53;;;;;;;9.00;6.70;;;;;;;21.98;76.91;100581.43;108995;1235;63328;-78
2022/07/31 06:42:43;;;;;;;10.40;6.00;;;;;;;21.96;76.08;100580.16;109015;1235;58984;-77
2022/07/31 06:45:33;;;;;;;6.60;5.80;;;;;;;22.01;76.01;100579.42;109180;1234;57964;-77
2022/07/31 06:48:37;;;;;;;13.00;8.00;;;;;;;22.08;76.79;100580.91;109126;1234;72975;-76
2022/07/31 06:51:09;;;;;;;7.90;6.00;;;;;;;22.07;76.03;100577.23;109039;1235;61493;-77
2022/07/31 06:54:02;;;;;;;7.10;6.20;;;;;;;22.10;75.74;100578.48;109167;1234;69883;-77
2022/07/31 06:56:30;;;;;;;8.90;6.70;;;;;;;22.13;76.92;100581.42;108860;1235;63051;-77
2022/07/31 06:58:59;;;;;;;7.20;5.40;;;;;;;22.18;77.09;100584.80;108803;1235;59088;-76
2022/07/31 07:01:27;;;;;;;7.40;6.00;;;;;;;22.19;76.39;100583.77;108879;1235;57460;-76
2022/07/31 07:03:55;;;;;;;8.80;5.40;;;;;;;22.20;75.89;100580.47;109126;1234;70553;-76
2022/07/31 07:06:23;;;;;;;9.10;5.60;;;;;;;22.16;75.56;100576.31;109019;1235;71957;-76
2022/07/31 07:08:51;;;;;;;12.50;5.90;;;;;;;22.21;74.80;100572.55;108972;1235;60549;-77
2022/07/31 07:11:20;;;;;;;7.60;5.30;;;;;;;22.33;74.67;100572.48;109196;1234;63175;-74
2022/07/31 07:13:48;;;;;;;7.20;5.40;;;;;;;22.32;75.40;100577.85;109221;1235;57562;-76
2022/07/31 07:16:16;;;;;;;8.10;5.50;;;;;;;22.39;74.85;100581.30;109191;1234;58781;-78
2022/07/31 07:18:44;;;;;;;8.80;5.50;;;;;;;22.47;75.00;100580.30;108956;1235;62837;-76
2022/07/31 07:21:12;;;;;;;8.70;5.10;;;;;;;22.45;74.39;100576.73;108777;1235;72203;-75
2022/07/31 07:23:40;;;;;;;7.00;5.30;;;;;;;22.47;71.84;100577.45;109047;1234;71144;-80
2022/07/31 07:26:35;;;;;;;9.30;5.40;;;;;;;22.49;72.58;100586.23;109084;1234;74076;-78
2022/07/31 07:29:03;;;;;;;8.20;5.70;;;;;;;22.56;70.39;100583.08;109231;1235;59042;-80
2022/07/31 07:31:31;;;;;;;9.10;5.50;;;;;;;22.60;70.98;100589.67;109220;1235;60424;-77
2022/07/31 07:33:59;;;;;;;9.20;5.60;;;;;;;22.70;72.01;100595.08;109470;1234;62997;-77
2022/07/31 07:36:27;;;;;;;7.80;5.70;;;;;;;22.74;69.81;100597.69;109014;1237;72643;-77
2022/07/31 07:39:02;;;;;;;11.30;6.20;;;;;;;22.80;70.99;100597.08;109626;1233;70932;-78
2022/07/31 07:41:31;;;;;;;8.50;5.70;;;;;;;22.82;72.76;100597.02;109194;1235;74117;-77
2022/07/31 07:43:58;;;;;;;7.00;6.00;;;;;;;22.85;73.13;100596.09;109440;1235;60687;-78
2022/07/31 07:46:26;;;;;;;8.90;6.00;;;;;;;22.86;71.42;100598.77;109316;1235;60797;-77
2022/07/31 07:49:01;;;;;;;10.80;6.50;;;;;;;22.86;72.09;100598.16;109456;1234;63622;-76
2022/07/31 07:51:36;;;;;;;7.70;5.80;;;;;;;22.83;73.29;100598.63;109698;1234;61854;-77
2022/07/31 07:54:42;;;;;;;9.20;6.40;;;;;;;22.83;74.40;100597.06;109277;1235;70863;-75
2022/07/31 07:57:21;;;;;;;7.90;6.20;;;;;;;22.69;69.62;100594.95;108866;1233;73796;-76
2022/07/31 08:00:42;;;;;;;8.00;6.00;;;;;;;22.61;73.80;100593.74;108359;1237;59067;-75
2022/07/31 08:03:10;;;;;;;7.20;5.70;;;;;;;22.53;74.71;100593.34;109032;1234;61174;-76
2022/07/31 08:05:58;;;;;;;8.10;5.90;;;;;;;22.46;75.12;100592.30;109072;1235;62798;-76
2022/07/31 08:08:26;;;;;;;7.60;5.60;;;;;;;22.33;76.59;100595.00;109124;1235;61869;-78
2022/07/31 08:11:09;;;;;;;7.80;5.70;;;;;;;22.22;77.66;100594.41;109182;1234;69749;-75
2022/07/31 08:13:54;;;;;;;8.30;5.80;;;;;;;22.15;78.69;100594.34;108778;1235;63629;-75
2022/07/31 08:16:55;;;;;;;10.30;5.80;;;;;;;22.09;78.82;100598.47;109534;1234;62403;-77
2022/07/31 08:19:24;;;;;;;9.70;5.40;;;;;;;22.10;77.74;100600.45;108790;1235;62003;-71
2022/07/31 08:21:51;;;;;;;10.60;6.30;;;;;;;22.06;76.88;100599.90;108748;1235;75236;-72
2022/07/31 08:24:19;;;;;;;8.60;6.20;;;;;;;21.96;77.97;100605.48;108711;1235;72255;-74
2022/07/31 08:29:38;;;;;;;6.30;5.60;;;;;;;22.05;78.41;100608.33;108732;1235;63143;-73
2022/07/31 08:32:16;;;;;;;8.70;5.80;;;;;;;22.08;77.63;100610.41;108816;1235;59052;-73
2022/07/31 08:35:08;;;;;;;8.50;5.30;;;;;;;22.00;77.86;100610.59;109151;1234;60574;-72
2022/07/31 08:37:35;;;;;;;6.80;5.60;;;;;;;21.97;77.75;100606.44;109121;1234;63409;-75
2022/07/31 08:40:24;;;;;;;8.40;6.00;;;;;;;21.96;79.38;100605.12;108822;1237;62027;-73
2022/07/31 08:42:52;;;;;;;9.90;6.50;;;;;;;21.94;81.18;100609.27;108495;1237;70527;-71
2022/07/31 08:45:20;;;;;;;7.70;5.90;;;;;;;21.99;81.34;100603.98;108825;1235;72913;-70
2022/07/31 08:48:02;;;;;;;9.10;6.30;;;;;;;22.08;80.91;100606.02;108902;1235;62561;-73
2022/07/31 08:50:37;;;;;;;8.20;6.20;;;;;;;22.15;81.74;100608.70;108749;1235;60652;-72
2022/07/31 08:53:07;;;;;;;9.80;6.30;;;;;;;22.24;80.48;100613.42;108805;1235;74071;-73
2022/07/31 08:55:55;;;;;;;9.70;6.90;;;;;;;22.30;79.15;100612.02;108701;1235;61256;-74
2022/07/31 08:58:28;;;;;;;9.40;6.20;;;;;;;22.36;79.75;100610.26;108873;1235;68778;-72
2022/07/31 09:00:56;;;;;;;10.10;6.40;;;;;;;22.42;78.71;100614.17;108738;1235;63659;-74
2022/07/31 09:03:24;;;;;;;9.80;6.60;;;;;;;22.49;78.82;100610.39;108960;1233;59402;-71
2022/07/31 09:05:58;;;;;;;9.30;7.30;;;;;;;22.58;79.48;100607.88;108973;1234;58737;-73
2022/07/31 09:08:26;;;;;;;8.00;6.50;;;;;;;22.67;78.14;100601.00;108834;1235;73453;-70
2022/07/31 09:11:06;;;;;;;8.80;6.30;;;;;;;22.76;77.00;100606.52;108796;1235;72470;-72
2022/07/31 09:13:38;;;;;;;10.00;6.20;;;;;;;22.86;74.98;100605.05;108850;1235;60297;-71
2022/07/31 09:16:23;;;;;;;8.50;6.20;;;;;;;22.97;74.37;100606.84;109207;1234;63232;-74
2022/07/31 09:19:00;;;;;;;8.80;6.20;;;;;;;23.01;74.03;100604.92;108868;1235;58825;-72
2022/07/31 09:21:41;;;;;;;10.20;7.20;;;;;;;23.08;73.17;100605.09;108815;1235;58793;-72
2022/07/31 09:24:12;;;;;;;10.50;7.00;;;;;;;23.13;74.01;100600.98;108785;1235;73658;-73
2022/07/31 09:26:39;;;;;;;11.60;6.90;;;;;;;23.18;75.18;100599.88;108951;1234;61074;-73
2022/07/31 09:29:10;;;;;;;8.20;6.20;;;;;;;23.23;74.06;100601.05;109156;1234;59930;-72
2022/07/31 09:31:38;;;;;;;6.50;5.70;;;;;;;23.30;71.83;100599.73;108658;1235;72068;-73
2022/07/31 09:34:26;;;;;;;6.50;4.90;;;;;;;23.24;64.08;100602.33;108780;1235;60748;-72
2022/07/31 09:37:20;;;;;;;5.70;4.60;;;;;;;23.20;64.29;100606.57;108920;1235;57426;-75
2022/07/31 09:40:08;;;;;;;8.00;5.20;;;;;;;23.27;64.64;100601.94;108960;1235;62947;-73
2022/07/31 09:42:44;;;;;;;7.60;5.00;;;;;;;23.36;63.75;100601.30;109101;1235;62109;-73
2022/07/31 09:45:24;;;;;;;9.30;6.20;;;;;;;23.42;66.15;100598.08;108967;1234;59244;-72
2022/07/31 09:48:11;;;;;;;10.00;6.00;;;;;;;23.41;69.97;100597.13;108843;1235;63166;-72
2022/07/31 09:50:56;;;;;;;9.50;5.80;;;;;;;23.37;65.37;100596.41;108835;1235;59169;-72
2022/07/31 09:53:24;;;;;;;10.60;5.60;;;;;;;23.48;67.91;100594.75;108849;1235;58990;-73
2022/07/31 09:55:58;;;;;;;7.10;6.20;;;;;;;23.62;67.24;100590.89;108587;1234;63008;-72
2022/07/31 09:58:25;;;;;;;7.30;5.70;;;;;;;23.54;68.75;100592.02;108706;1235;71819;-72
2022/07/31 10:00:55;;;;;;;5.70;4.70;;;;;;;23.41;63.51;100585.86;108756;1235;70511;-71
2022/07/31 10:03:25;;;;;;;7.60;5.80;;;;;;;23.36;64.57;100592.63;108919;1235;75160;-70
2022/07/31 10:05:54;;;;;;;11.40;6.60;;;;;;;23.28;65.35;100592.42;108841;1235;59087;-73
2022/07/31 10:08:36;;;;;;;8.00;5.60;;;;;;;23.17;64.49;100598.59;108889;1235;58580;-71
2022/07/31 10:11:56;;;;;;;8.10;5.30;;;;;;;23.08;65.91;100607.80;108346;1235;72573;-74
2022/07/31 10:14:31;;;;;;;8.40;5.50;;;;;;;22.92;67.14;100618.67;108742;1235;73069;-73
2022/07/31 10:17:03;;;;;;;7.20;5.60;;;;;;;22.90;70.56;100623.50;108958;1235;60283;-75
2022/07/31 10:19:52;;;;;;;7.60;5.70;;;;;;;22.91;71.14;100628.34;108577;1237;63491;-72
2022/07/31 10:23:24;;;;;;;10.30;6.10;;;;;;;22.93;70.01;100614.80;108760;1235;58695;-72
2022/07/31 10:25:59;;;;;;;6.60;5.80;;;;;;;22.90;69.79;100603.08;108902;1235;61049;-74
2022/07/31 10:28:31;;;;;;;7.40;6.60;;;;;;;22.80;71.21;100601.91;109019;1234;63434;-72
2022/07/31 10:30:58;;;;;;;7.00;6.00;;;;;;;22.73;73.51;100599.94;109059;1235;72900;-71
2022/07/31 10:33:27;;;;;;;7.80;6.60;;;;;;;22.66;73.96;100603.64;108866;1234;60800;-72
2022/07/31 10:36:35;;;;;;;;;;;;;;;22.42;75.37;100602.73;108773;1235;74210;-69
2022/07/31 10:40:36;;;;;;;12.00;6.80;;;;;;;21.68;77.47;100605.05;108892;1235;59934;-79
2022/07/31 10:43:19;;;;;;;11.60;7.30;;;;;;;20.78;84.96;100613.66;108874;1235;59886;-75
2022/07/31 10:46:33;;;;;;;12.60;7.30;;;;;;;20.27;89.26;100600.98;108795;1235;62692;-77
2022/07/31 10:49:40;;;;;;;11.50;8.00;;;;;;;20.07;92.97;100598.89;108830;1236;72310;-77
2022/07/31 10:52:35;;;;;;;11.30;6.80;;;;;;;19.97;94.10;100590.49;108944;1234;60532;-77
2022/07/31 10:55:23;;;;;;;10.10;7.40;;;;;;;19.96;95.00;100584.25;109662;1233;63194;-77
2022/07/31 10:58:56;;;;;;;13.80;8.80;;;;;;;19.95;94.89;100579.84;110525;1234;58960;-79
2022/07/31 11:01:53;;;;;;;11.60;8.60;;;;;;;20.06;96.65;100575.05;111097;1233;61710;-79
2022/07/31 11:04:40;;;;;;;10.10;8.30;;;;;;;20.22;96.48;100567.80;111004;1232;62540;-80
2022/07/31 11:07:18;;;;;;;14.00;8.90;;;;;;;20.32;94.92;100559.73;110768;1235;71455;-78
2022/07/31 11:10:21;;;;;;;12.80;8.60;;;;;;;20.47;95.21;100558.14;109264;1237;60402;-78
2022/07/31 11:13:12;;;;;;;10.20;8.80;;;;;;;20.61;94.66;100557.05;110508;1234;63593;-78
2022/07/31 11:15:46;;;;;;;14.50;10.40;;;;;;;20.74;94.54;100561.02;109917;1235;62216;-79
2022/07/31 11:18:33;;;;;;;12.10;8.20;;;;;;;20.79;93.86;100563.64;110353;1233;59017;-80
2022/07/31 11:21:08;;;;;;;10.50;8.70;;;;;;;20.90;94.07;100566.44;110133;1235;63008;-79
2022/07/31 11:23:56;;;;;;;11.80;8.20;;;;;;;21.00;92.77;100560.30;109940;1235;71467;-74
2022/07/31 11:26:31;;;;;;;13.50;8.40;;;;;;;20.96;91.20;100563.71;108569;1238;70791;-76
2022/07/31 11:29:10;;;;;;;9.50;6.10;;;;;;;20.99;90.73;100567.27;108731;1235;63868;-73
2022/07/31 11:32:05;;;;;;;9.60;6.80;;;;;;;21.05;90.67;100573.81;108872;1234;59625;-72
2022/07/31 11:34:52;;;;;;;9.80;8.40;;;;;;;21.02;89.03;100576.84;108985;1234;60745;-71
2022/07/31 11:37:25;;;;;;;8.00;7.00;;;;;;;21.00;87.34;100577.58;108976;1234;74037;-76
2022/07/31 11:39:58;;;;;;;10.10;8.50;;;;;;;21.01;87.47;100576.02;109203;1234;62209;-72
2022/07/31 11:42:27;;;;;;;10.40;7.30;;;;;;;21.11;88.35;100576.67;108719;1235;59910;-73
2022/07/31 11:45:04;;;;;;;9.80;6.90;;;;;;;21.14;86.48;100573.62;109034;1233;64048;-71
2022/07/31 11:47:44;;;;;;;12.10;7.20;;;;;;;21.17;86.83;100569.38;108745;1234;60793;-70
2022/07/31 11:50:40;;;;;;;12.70;7.40;;;;;;;21.24;88.12;100573.38;108869;1234;57443;-71
2022/07/31 11:53:08;;;;;;;12.90;6.90;;;;;;;21.25;85.75;100577.20;108797;1235;72926;-71
2022/07/31 11:55:59;;;;;;;10.70;8.20;;;;;;;21.33;88.40;100572.11;108846;1235;71903;-71
2022/07/31 11:58:28;;;;;;;9.30;6.80;;;;;;;21.44;87.96;100570.98;108675;1237;59847;-73
2022/07/31 12:01:00;;;;;;;10.00;7.20;;;;;;;21.40;89.72;100562.66;108577;1235;72485;-76
2022/07/31 12:03:37;;;;;;;9.90;7.30;;;;;;;21.44;89.90;100559.79;108314;1237;62759;-74
2022/07/31 12:06:07;;;;;;;8.40;7.10;;;;;;;21.47;89.67;100548.75;108375;1238;60909;-72
2022/07/31 12:08:38;;;;;;;8.50;7.00;;;;;;;21.42;89.58;100538.38;108441;1238;73551;-72
2022/07/31 12:11:08;;;;;;;10.40;7.30;;;;;;;21.39;90.83;100532.05;108668;1235;71088;-72
2022/07/31 12:13:36;;;;;;;10.80;7.30;;;;;;;21.45;90.96;100530.65;108850;1234;69401;-74
2022/07/31 12:16:09;;;;;;;9.90;7.30;;;;;;;21.34;90.43;100517.39;108421;1236;73836;-74
2022/07/31 12:18:55;;;;;;;10.40;8.40;;;;;;;21.34;90.12;100521.81;108687;1238;58300;-71
2022/07/31 12:21:38;;;;;;;11.40;8.30;;;;;;;21.41;89.59;100520.96;108413;1238;59059;-71
2022/07/31 12:24:13;;;;;;;11.70;7.90;;;;;;;21.50;89.96;100517.67;108748;1235;73562;-73
2022/07/31 12:26:49;;;;;;;9.90;7.80;;;;;;;21.53;89.34;100515.46;108811;1234;61223;-74
2022/07/31 12:29:17;;;;;;;10.80;8.20;;;;;;;21.55;89.37;100515.73;108640;1235;70370;-73
2022/07/31 12:31:53;;;;;;;11.60;8.90;;;;;;;21.60;89.76;100516.60;108808;1235;73499;-73
2022/07/31 12:34:28;;;;;;;12.00;8.60;;;;;;;21.62;89.25;100515.77;108765;1235;59019;-75
2022/07/31 12:37:04;;;;;;;9.90;8.00;;;;;;;21.70;89.57;100511.43;108933;1235;61575;-74
2022/07/31 12:39:37;;;;;;;9.70;7.00;;;;;;;21.76;88.84;100513.79;108907;1235;64006;-74
2022/07/31 12:42:31;;;;;;;10.20;7.30;;;;;;;21.74;88.82;100515.02;108941;1235;71920;-71
2022/07/31 12:45:05;;;;;;;8.40;6.50;;;;;;;21.66;88.47;100515.58;108955;1236;60360;-72
2022/07/31 12:47:52;;;;;;;10.20;7.40;;;;;;;21.67;88.74;100521.91;109085;1235;74120;-74
2022/07/31 12:50:21;;;;;;;;;;;;;;;21.65;88.85;100521.81;109017;1236;59042;-76
2022/07/31 12:52:49;;;;;;;9.60;6.80;;;;;;;21.66;89.15;100519.17;108986;1235;57559;-74
2022/07/31 12:55:21;;;;;;;9.20;6.00;;;;;;;21.71;88.21;100516.77;108911;1234;62193;-74
2022/07/31 12:57:51;;;;;;;7.60;6.50;;;;;;;21.76;87.37;100512.44;108920;1234;60856;-74
2022/07/31 13:00:22;;;;;;;7.30;6.40;;;;;;;21.69;88.78;100512.98;108576;1235;70632;-73
2022/07/31 13:02:55;;;;;;;9.30;6.60;;;;;;;21.63;88.94;100512.49;108889;1234;71975;-73
2022/07/31 13:05:23;;;;;;;;;;;;;;;21.60;89.05;100512.44;108730;1234;63364;-74
2022/07/31 13:07:51;;;;;;;9.70;6.50;;;;;;;21.58;89.36;100515.39;108955;1234;59411;-75
2022/07/31 13:10:20;;;;;;;7.80;6.70;;;;;;;21.56;88.57;100519.86;108873;1235;63895;-74
2022/07/31 13:12:52;;;;;;;12.60;7.50;;;;;;;21.44;88.37;100530.35;108668;1235;72292;-75
2022/07/31 13:15:28;;;;;;;10.80;6.80;;;;;;;21.39;89.47;100539.83;108512;1238;69522;-74
2022/07/31 13:18:03;;;;;;;16.80;8.30;;;;;;;21.27;90.08;100530.45;109106;1234;63156;-73
2022/07/31 13:20:31;;;;;;;13.10;7.20;;;;;;;21.24;91.96;100526.80;109184;1233;63904;-73
2022/07/31 13:22:59;;;;;;;11.10;7.40;;;;;;;21.13;92.97;100517.76;108483;1238;60800;-70
2022/07/31 13:25:31;;;;;;;10.60;7.20;;;;;;;21.10;93.07;100513.55;108913;1233;63057;-71
2022/07/31 13:28:00;;;;;;;10.80;7.70;;;;;;;21.06;93.16;100519.71;109085;1232;72843;-73
2022/07/31 13:30:31;;;;;;;;;;;;;;;20.99;92.81;100526.05;108837;1235;71386;-73
2022/07/31 13:32:58;;;;;;;11.50;7.40;;;;;;;20.87;91.63;100530.40;108790;1233;73490;-72
2022/07/31 13:35:26;;;;;;;11.70;7.30;;;;;;;20.85;90.02;100536.31;108962;1234;58849;-72
2022/07/31 13:37:56;;;;;;;15.60;8.80;;;;;;;20.91;91.85;100535.80;109072;1233;61725;-73
2022/07/31 13:43:12;;;;;;;12.20;8.20;;;;;;;20.90;93.52;100535.61;108964;1233;61982;-74
2022/07/31 13:45:39;;;;;;;11.00;8.30;;;;;;;20.84;93.51;100530.46;108910;1233;70396;-76
2022/07/31 13:48:08;;;;;;;12.90;8.50;;;;;;;20.84;94.08;100530.02;108601;1237;63667;-73
2022/07/31 13:50:40;;;;;;;10.20;8.00;;;;;;;20.89;94.37;100526.70;108708;1234;61065;-73
2022/07/31 13:53:09;;;;;;;11.50;9.20;;;;;;;20.98;94.03;100528.68;108818;1235;62111;-70
2022/07/31 13:55:37;;;;;;;10.50;8.30;;;;;;;21.06;94.19;100526.45;108929;1234;64014;-72
2022/07/31 13:58:05;;;;;;;11.40;7.90;;;;;;;21.11;93.87;100519.93;108692;1234;62763;-72
2022/07/31 14:00:32;;;;;;;12.00;8.40;;;;;;;21.16;94.27;100514.04;108601;1235;60087;-72
2022/07/31 14:03:00;;;;;;;12.70;8.10;;;;;;;21.26;93.69;100508.62;108937;1233;63063;-73
2022/07/31 14:05:28;;;;;;;11.90;8.20;;;;;;;21.35;92.53;100503.48;108986;1234;62585;-74